createdAt,value
2018-10-06T00:00:36.256Z,12.20
2018-10-06T00:03:04.453Z,12.30
2018-10-06T00:05:32.629Z,12.50
2018-10-06T00:08:00.822Z,12.50
2018-10-06T00:10:28.995Z,12.60
2018-10-06T00:12:57.449Z,12.70
2018-10-06T00:15:25.642Z,12.70
2018-10-06T00:17:53.837Z,12.70
2018-10-06T00:20:22.005Z,12.70
2018-10-06T00:22:50.193Z,12.80
2018-10-06T00:25:18.365Z,12.80
2018-10-06T00:27:46.560Z,12.80
2018-10-06T00:30:14.732Z,12.80
2018-10-06T00:32:42.924Z,12.80
2018-10-06T00:35:11.090Z,12.80
2018-10-06T00:37:39.306Z,12.80
2018-10-06T00:40:07.480Z,12.80
2018-10-06T00:42:35.684Z,12.80
2018-10-06T00:45:03.871Z,12.70
2018-10-06T00:47:32.065Z,12.70
2018-10-06T00:50:00.256Z,12.70
2018-10-06T00:52:28.469Z,12.70
2018-10-06T00:54:56.642Z,12.70
2018-10-06T00:57:25.029Z,12.70
2018-10-06T00:59:53.199Z,12.70
2018-10-06T01:02:21.401Z,12.70
2018-10-06T01:04:49.576Z,12.70
2018-10-06T01:07:17.757Z,12.70
2018-10-06T01:09:45.957Z,12.70
2018-10-06T01:12:14.167Z,12.70
2018-10-06T01:14:42.417Z,12.70
2018-10-06T01:17:10.643Z,12.80
2018-10-06T01:19:38.808Z,12.80
2018-10-06T01:22:07.020Z,12.90
2018-10-06T01:24:35.285Z,12.90
2018-10-06T01:27:03.482Z,12.90
2018-10-06T01:29:32.670Z,12.90
2018-10-06T01:32:02.476Z,12.90
2018-10-06T01:34:30.644Z,12.90
2018-10-06T01:36:59.128Z,12.90
2018-10-06T01:39:27.312Z,12.90
2018-10-06T01:41:55.553Z,12.90
2018-10-06T01:44:23.777Z,12.90
2018-10-06T01:46:52.320Z,12.90
2018-10-06T01:49:20.532Z,12.90
2018-10-06T01:51:48.715Z,13.00
2018-10-06T01:54:16.905Z,13.00
2018-10-06T01:56:45.080Z,13.00
2018-10-06T01:59:13.381Z,13.00
2018-10-06T02:01:41.604Z,13.00
2018-10-06T02:04:09.839Z,13.10
2018-10-06T02:06:38.064Z,13.10
2018-10-06T02:09:06.960Z,13.10
2018-10-06T02:11:35.151Z,13.10
2018-10-06T02:14:03.412Z,13.20
2018-10-06T02:16:31.648Z,13.20
2018-10-06T02:18:59.920Z,13.20
2018-10-06T02:21:28.088Z,13.20
2018-10-06T02:23:56.273Z,13.20
2018-10-06T02:26:24.433Z,13.10
2018-10-06T02:28:52.616Z,13.10
2018-10-06T02:31:20.783Z,13.10
2018-10-06T02:33:48.977Z,13.10
2018-10-06T02:36:17.142Z,13.00
2018-10-06T02:38:45.342Z,13.00
2018-10-06T02:41:13.521Z,12.90
2018-10-06T02:43:41.712Z,12.90
2018-10-06T02:46:09.890Z,12.90
2018-10-06T02:48:38.080Z,12.90
2018-10-06T02:51:06.326Z,13.00
2018-10-06T02:53:34.573Z,13.00
2018-10-06T02:56:03.267Z,13.00
2018-10-06T02:58:31.463Z,13.00
2018-10-06T03:00:59.648Z,13.00
2018-10-06T03:03:27.881Z,13.00
2018-10-06T03:05:56.049Z,12.90
2018-10-06T03:08:24.240Z,12.80
2018-10-06T03:10:52.432Z,12.70
2018-10-06T03:13:20.679Z,12.60
2018-10-06T03:15:48.945Z,12.50
2018-10-06T03:18:17.244Z,12.40
2018-10-06T03:20:45.496Z,12.30
2018-10-06T03:23:13.775Z,12.30
2018-10-06T03:25:42.029Z,12.20
2018-10-06T03:28:10.232Z,12.10
2018-10-06T03:30:38.482Z,12.10
2018-10-06T03:33:06.657Z,12.00
2018-10-06T03:35:34.944Z,11.90
2018-10-06T03:38:03.199Z,11.90
2018-10-06T03:40:31.494Z,11.80
2018-10-06T03:42:59.756Z,11.80
2018-10-06T03:45:28.061Z,11.80
2018-10-06T03:47:56.301Z,11.80
2018-10-06T03:50:24.513Z,11.70
2018-10-06T03:52:53.065Z,11.70
2018-10-06T03:55:21.368Z,11.70
2018-10-06T03:57:49.614Z,11.70
2018-10-06T04:00:17.805Z,11.60
2018-10-06T04:02:46.574Z,11.60
2018-10-06T04:05:14.891Z,11.50
2018-10-06T04:07:43.069Z,11.50
2018-10-06T04:10:11.281Z,11.50
2018-10-06T04:12:40.056Z,11.40
2018-10-06T04:15:08.281Z,11.40
2018-10-06T04:17:36.485Z,11.40
2018-10-06T04:20:04.669Z,11.30
2018-10-06T04:22:32.825Z,11.30
2018-10-06T04:25:01.012Z,11.20
2018-10-06T04:27:29.176Z,11.20
2018-10-06T04:29:57.357Z,11.10
2018-10-06T04:32:25.523Z,11.10
2018-10-06T04:34:53.709Z,11.10
2018-10-06T04:37:21.864Z,11.10
2018-10-06T04:39:50.055Z,11.10
2018-10-06T04:42:18.493Z,11.00
2018-10-06T04:44:46.684Z,11.00
2018-10-06T04:47:14.844Z,11.00
2018-10-06T04:49:43.026Z,11.00
2018-10-06T04:52:11.189Z,10.90
2018-10-06T04:54:40.305Z,10.90
2018-10-06T04:57:08.462Z,10.90
2018-10-06T04:59:36.644Z,10.90
2018-10-06T05:02:04.815Z,10.80
2018-10-06T05:04:32.997Z,10.80
2018-10-06T05:07:01.217Z,10.80
2018-10-06T05:09:29.409Z,10.80
2018-10-06T05:11:57.570Z,10.80
2018-10-06T05:14:25.786Z,10.80
2018-10-06T05:16:53.952Z,10.80
2018-10-06T05:19:22.137Z,10.80
2018-10-06T05:21:50.309Z,10.70
2018-10-06T05:24:18.493Z,10.70
2018-10-06T05:26:46.726Z,10.70
2018-10-06T05:29:14.872Z,10.70
2018-10-06T05:31:43.068Z,10.70
2018-10-06T05:34:11.278Z,10.60
2018-10-06T05:36:39.443Z,10.60
2018-10-06T05:39:08.465Z,10.60
2018-10-06T05:41:36.652Z,10.60
2018-10-06T05:44:04.875Z,10.60
2018-10-06T05:46:33.114Z,10.60
2018-10-06T05:49:01.306Z,10.60
2018-10-06T05:51:29.732Z,10.60
2018-10-06T05:53:58.070Z,10.60
2018-10-06T05:56:26.250Z,10.60
2018-10-06T05:58:54.536Z,10.60
2018-10-06T06:01:23.360Z,10.60
2018-10-06T06:03:51.578Z,10.60
2018-10-06T06:06:19.797Z,10.60
2018-10-06T06:08:48.396Z,10.60
2018-10-06T06:11:16.664Z,10.60
2018-10-06T06:13:44.850Z,10.50
2018-10-06T06:16:13.090Z,10.60
2018-10-06T06:18:41.701Z,10.60
2018-10-06T06:21:09.944Z,10.60
2018-10-06T06:23:38.104Z,10.70
2018-10-06T06:26:06.280Z,10.70
2018-10-06T06:28:35.427Z,10.70
2018-10-06T06:31:03.627Z,10.80
2018-10-06T06:33:31.966Z,10.90
2018-10-06T06:36:00.197Z,10.90
2018-10-06T06:38:28.399Z,11.00
2018-10-06T06:40:56.630Z,11.20
2018-10-06T06:43:26.081Z,11.40
2018-10-06T06:45:54.292Z,11.60
2018-10-06T06:48:22.565Z,11.90
2018-10-06T06:50:50.755Z,12.10
2018-10-06T06:53:19.437Z,12.20
2018-10-06T06:55:47.624Z,12.30
2018-10-06T06:58:15.794Z,12.40
2018-10-06T07:00:43.996Z,12.40
2018-10-06T07:03:12.160Z,12.50
2018-10-06T07:05:40.427Z,12.50
2018-10-06T07:08:08.516Z,12.50
2018-10-06T07:10:36.714Z,12.60
2018-10-06T07:13:04.875Z,12.80
2018-10-06T07:15:33.101Z,12.90
2018-10-06T07:18:01.274Z,13.10
2018-10-06T07:20:29.496Z,13.20
2018-10-06T07:22:57.883Z,13.30
2018-10-06T07:25:26.754Z,13.40
2018-10-06T07:27:55.256Z,13.50
2018-10-06T07:30:23.561Z,13.60
2018-10-06T07:32:51.861Z,13.70
2018-10-06T07:35:20.017Z,13.90
2018-10-06T07:37:48.213Z,14.00
2018-10-06T07:40:16.452Z,14.20
2018-10-06T07:42:44.637Z,14.30
2018-10-06T07:45:12.804Z,14.50
2018-10-06T07:47:41.005Z,14.70
2018-10-06T07:50:09.164Z,14.80
2018-10-06T07:52:37.347Z,15.00
2018-10-06T07:55:05.545Z,15.10
2018-10-06T07:57:33.734Z,15.30
2018-10-06T08:00:01.891Z,15.40
2018-10-06T08:02:30.068Z,15.50
2018-10-06T08:04:58.259Z,15.60
2018-10-06T08:07:26.441Z,15.70
2018-10-06T08:09:54.615Z,15.80
2018-10-06T08:12:22.802Z,15.90
2018-10-06T08:14:51.023Z,16.00
2018-10-06T08:17:19.380Z,16.10
2018-10-06T08:19:47.536Z,16.30
2018-10-06T08:22:15.733Z,16.40
2018-10-06T08:24:43.894Z,16.60
2018-10-06T08:27:12.193Z,16.70
2018-10-06T08:29:40.461Z,16.90
2018-10-06T08:32:08.804Z,17.10
2018-10-06T08:34:37.184Z,17.30
2018-10-06T08:37:05.416Z,17.50
2018-10-06T08:39:33.583Z,17.60
2018-10-06T08:42:01.760Z,17.80
2018-10-06T08:44:29.919Z,18.00
2018-10-06T08:46:58.113Z,18.10
2018-10-06T08:49:26.270Z,18.30
2018-10-06T08:51:54.449Z,18.50
2018-10-06T08:54:22.606Z,18.70
2018-10-06T08:56:50.785Z,18.90
2018-10-06T08:59:18.963Z,19.10
2018-10-06T09:01:47.125Z,19.20
2018-10-06T09:04:15.597Z,19.40
2018-10-06T09:06:43.801Z,19.60
2018-10-06T09:09:11.973Z,19.80
2018-10-06T09:11:40.148Z,19.90
2018-10-06T09:14:08.333Z,20.00
2018-10-06T09:16:36.535Z,20.20
2018-10-06T09:19:04.717Z,20.30
2018-10-06T09:21:32.875Z,20.60
2018-10-06T09:24:01.081Z,20.60
2018-10-06T09:26:29.238Z,20.70
2018-10-06T09:28:57.426Z,20.90
2018-10-06T09:31:25.584Z,21.00
2018-10-06T09:33:53.882Z,21.10
2018-10-06T09:36:22.036Z,21.20
2018-10-06T09:38:50.238Z,21.30
2018-10-06T09:41:18.397Z,21.40
2018-10-06T09:43:46.622Z,21.50
2018-10-06T09:46:14.800Z,21.60
2018-10-06T09:48:42.978Z,21.70
2018-10-06T09:51:11.148Z,21.80
2018-10-06T09:53:39.389Z,21.90
2018-10-06T09:56:07.557Z,22.00
2018-10-06T09:58:35.745Z,22.00
2018-10-06T10:01:09.214Z,22.10
2018-10-06T10:03:42.849Z,22.20
2018-10-06T10:06:11.023Z,22.20
2018-10-06T10:08:39.220Z,22.30
2018-10-06T10:11:07.410Z,22.40
2018-10-06T10:13:35.630Z,22.50
2018-10-06T10:16:03.805Z,22.70
2018-10-06T10:18:32.065Z,22.80
2018-10-06T10:21:00.441Z,23.00
2018-10-06T10:23:28.689Z,23.10
2018-10-06T10:25:56.796Z,23.10
2018-10-06T10:28:25.028Z,23.20
2018-10-06T10:30:53.694Z,23.20
2018-10-06T10:33:21.873Z,23.20
2018-10-06T10:35:50.070Z,23.20
2018-10-06T10:38:18.515Z,23.20
2018-10-06T10:40:46.706Z,23.20
2018-10-06T10:43:15.445Z,23.20
2018-10-06T10:45:43.612Z,23.20
2018-10-06T10:48:11.820Z,23.10
2018-10-06T10:50:40.032Z,23.10
2018-10-06T10:53:08.149Z,23.10
2018-10-06T10:55:36.416Z,23.10
2018-10-06T10:58:04.589Z,23.10
2018-10-06T11:00:32.802Z,23.10
2018-10-06T11:03:00.936Z,23.10
2018-10-06T11:05:29.114Z,23.10
2018-10-06T11:07:57.372Z,23.20
2018-10-06T11:10:25.537Z,23.20
2018-10-06T11:12:53.733Z,23.20
2018-10-06T11:15:21.882Z,23.20
2018-10-06T11:17:50.075Z,23.20
2018-10-06T11:20:18.233Z,23.20
2018-10-06T11:22:46.745Z,23.20
2018-10-06T11:25:14.907Z,23.30
2018-10-06T11:27:43.093Z,23.30
2018-10-06T11:30:11.848Z,23.40
2018-10-06T11:32:40.065Z,23.50
2018-10-06T11:35:08.234Z,23.50
2018-10-06T11:37:36.588Z,23.50
2018-10-06T11:40:04.593Z,23.50
2018-10-06T11:42:32.786Z,23.50
2018-10-06T11:45:00.945Z,23.50
2018-10-06T11:47:29.101Z,23.60
2018-10-06T11:49:57.381Z,23.60
2018-10-06T11:52:25.559Z,23.60
2018-10-06T11:54:54.026Z,23.60
2018-10-06T11:57:22.176Z,23.70
2018-10-06T11:59:50.404Z,23.70
2018-10-06T12:02:18.517Z,23.70
2018-10-06T12:04:46.696Z,23.70
2018-10-06T12:07:14.876Z,23.70
2018-10-06T12:09:43.073Z,23.70
2018-10-06T12:12:11.244Z,23.80
2018-10-06T12:14:40.013Z,23.80
2018-10-06T12:17:08.200Z,23.80
2018-10-06T12:19:36.353Z,23.80
2018-10-06T12:22:04.537Z,23.80
2018-10-06T12:24:32.720Z,23.90
2018-10-06T12:27:01.001Z,23.80
2018-10-06T12:29:29.153Z,23.90
2018-10-06T12:31:57.344Z,23.90
2018-10-06T12:34:25.493Z,23.90
2018-10-06T12:36:53.673Z,24.00
2018-10-06T12:39:21.839Z,24.10
2018-10-06T12:41:50.028Z,24.10
2018-10-06T12:44:18.213Z,24.20
2018-10-06T12:46:46.391Z,24.20
2018-10-06T12:49:14.546Z,24.30
2018-10-06T12:51:42.741Z,24.30
2018-10-06T12:54:10.918Z,24.30
2018-10-06T12:56:39.125Z,24.30
2018-10-06T12:59:07.323Z,24.30
2018-10-06T13:01:35.513Z,24.30
2018-10-06T13:04:03.664Z,24.40
2018-10-06T13:06:31.848Z,24.40
2018-10-06T13:09:00.216Z,24.40
2018-10-06T13:11:28.405Z,24.40
2018-10-06T13:13:56.552Z,24.50
2018-10-06T13:16:24.745Z,24.50
2018-10-06T13:18:52.912Z,24.60
2018-10-06T13:21:21.313Z,24.60
2018-10-06T13:23:49.465Z,24.60
2018-10-06T13:26:17.649Z,24.60
2018-10-06T13:28:45.852Z,24.60
2018-10-06T13:31:14.012Z,24.60
2018-10-06T13:33:42.225Z,24.60
2018-10-06T13:36:10.401Z,24.60
2018-10-06T13:38:38.580Z,24.50
2018-10-06T13:41:06.753Z,24.50
2018-10-06T13:43:34.958Z,24.40
2018-10-06T13:46:03.112Z,24.40
2018-10-06T13:48:31.292Z,24.30
2018-10-06T13:50:59.471Z,24.20
2018-10-06T13:53:27.644Z,24.20
2018-10-06T13:55:55.792Z,24.10
2018-10-06T13:58:23.976Z,24.10
2018-10-06T14:00:52.137Z,24.10
2018-10-06T14:03:20.324Z,24.00
2018-10-06T14:05:50.040Z,24.00
2018-10-06T14:08:18.253Z,23.90
2018-10-06T14:10:46.400Z,23.90
2018-10-06T14:13:14.593Z,23.90
2018-10-06T14:15:42.759Z,23.80
2018-10-06T14:18:10.929Z,23.80
2018-10-06T14:20:39.351Z,23.80
2018-10-06T14:23:07.496Z,23.70
2018-10-06T14:25:35.721Z,23.70
2018-10-06T14:28:03.913Z,23.70
2018-10-06T14:30:32.117Z,23.70
2018-10-06T14:33:00.304Z,23.70
2018-10-06T14:35:28.460Z,23.60
2018-10-06T14:37:56.641Z,23.60
2018-10-06T14:40:24.824Z,23.50
2018-10-06T14:42:52.997Z,23.50
2018-10-06T14:45:21.161Z,23.50
2018-10-06T14:47:49.348Z,23.40
2018-10-06T14:50:17.538Z,23.40
2018-10-06T14:52:45.814Z,23.30
2018-10-06T14:55:13.965Z,23.30
2018-10-06T14:57:42.143Z,23.30
2018-10-06T15:00:10.326Z,23.30
2018-10-06T15:02:38.523Z,23.20
2018-10-06T15:05:06.670Z,23.20
2018-10-06T15:07:35.189Z,23.10
2018-10-06T15:10:03.366Z,23.10
2018-10-06T15:12:31.552Z,23.10
2018-10-06T15:14:59.743Z,23.00
2018-10-06T15:17:27.949Z,23.00
2018-10-06T15:19:56.124Z,23.00
2018-10-06T15:22:24.332Z,22.90
2018-10-06T15:24:52.493Z,22.90
2018-10-06T15:27:20.677Z,22.80
2018-10-06T15:29:48.837Z,22.70
2018-10-06T15:32:17.002Z,22.60
2018-10-06T15:34:45.241Z,22.60
2018-10-06T15:37:13.405Z,22.50
2018-10-06T15:39:41.589Z,22.40
2018-10-06T15:42:09.737Z,22.30
2018-10-06T15:44:37.937Z,22.20
2018-10-06T15:47:06.095Z,22.10
2018-10-06T15:49:34.285Z,22.10
2018-10-06T15:52:02.515Z,22.00
2018-10-06T15:54:30.790Z,22.00
2018-10-06T15:56:58.961Z,21.90
2018-10-06T15:59:27.515Z,21.90
2018-10-06T16:01:55.664Z,21.80
2018-10-06T16:04:23.837Z,21.70
2018-10-06T16:06:52.062Z,21.70
2018-10-06T16:09:20.238Z,21.60
2018-10-06T16:11:48.397Z,21.50
2018-10-06T16:14:16.592Z,21.40
2018-10-06T16:16:45.015Z,21.40
2018-10-06T16:19:14.005Z,21.30
2018-10-06T16:21:42.188Z,21.20
2018-10-06T16:24:10.342Z,21.20
2018-10-06T16:26:38.500Z,21.10
2018-10-06T16:29:07.052Z,21.10
2018-10-06T16:31:35.202Z,21.00
2018-10-06T16:34:03.388Z,21.00
2018-10-06T16:36:31.555Z,20.90
2018-10-06T16:38:59.730Z,20.80
2018-10-06T16:41:27.893Z,20.70
2018-10-06T16:43:56.085Z,20.60
2018-10-06T16:46:24.225Z,20.50
2018-10-06T16:48:53.313Z,20.40
2018-10-06T16:51:21.434Z,20.30
2018-10-06T16:53:49.620Z,20.30
2018-10-06T16:56:18.000Z,20.10
2018-10-06T16:58:46.188Z,20.10
2018-10-06T17:01:14.350Z,20.00
2018-10-06T17:03:43.502Z,19.90
2018-10-06T17:06:11.962Z,19.90
2018-10-06T17:08:40.105Z,19.80
2018-10-06T17:11:08.294Z,19.70
2018-10-06T17:13:36.450Z,19.60
2018-10-06T17:16:04.634Z,19.50
2018-10-06T17:18:32.850Z,19.50
2018-10-06T17:21:01.010Z,19.40
2018-10-06T17:23:29.166Z,19.30
2018-10-06T17:25:57.361Z,19.20
2018-10-06T17:28:25.718Z,19.10
2018-10-06T17:30:53.894Z,19.00
2018-10-06T17:33:22.065Z,18.90
2018-10-06T17:35:50.270Z,18.80
2018-10-06T17:38:18.660Z,18.70
2018-10-06T17:40:46.833Z,18.60
2018-10-06T17:43:14.995Z,18.50
2018-10-06T17:45:43.185Z,18.40
2018-10-06T17:48:11.369Z,18.30
2018-10-06T17:50:39.706Z,18.20
2018-10-06T17:53:07.739Z,18.10
2018-10-06T17:55:35.929Z,18.00
2018-10-06T17:58:04.105Z,17.90
2018-10-06T18:00:32.302Z,17.80
2018-10-06T18:03:00.465Z,17.70
2018-10-06T18:05:28.682Z,17.60
2018-10-06T18:07:56.876Z,17.50
2018-10-06T18:10:25.072Z,17.50
2018-10-06T18:12:53.721Z,17.40
2018-10-06T18:15:21.973Z,17.40
2018-10-06T18:17:50.143Z,17.30
2018-10-06T18:20:18.405Z,17.20
2018-10-06T18:22:46.557Z,17.20
2018-10-06T18:25:14.766Z,17.10
2018-10-06T18:27:44.090Z,17.00
2018-10-06T18:30:12.606Z,17.00
2018-10-06T18:32:40.784Z,16.90
2018-10-06T18:35:09.699Z,16.90
2018-10-06T18:37:38.136Z,16.80
2018-10-06T18:40:07.352Z,16.80
2018-10-06T18:42:35.546Z,16.80
2018-10-06T18:45:04.363Z,16.70
2018-10-06T18:47:32.548Z,16.70
2018-10-06T18:50:01.760Z,16.70
2018-10-06T18:52:30.937Z,16.70
2018-10-06T18:54:59.145Z,16.60
2018-10-06T18:57:27.332Z,16.60
2018-10-06T18:59:56.259Z,16.50
2018-10-06T19:02:25.279Z,16.50
2018-10-06T19:04:53.476Z,16.40
2018-10-06T19:07:21.718Z,16.40
2018-10-06T19:09:51.270Z,16.40
2018-10-06T19:12:20.241Z,16.30
2018-10-06T19:14:49.715Z,16.30
2018-10-06T19:17:18.157Z,16.20
2018-10-06T19:19:46.494Z,16.20
2018-10-06T19:22:15.821Z,16.20
2018-10-06T19:24:44.066Z,16.20
2018-10-06T19:27:15.084Z,16.10
2018-10-06T19:29:43.937Z,16.10
2018-10-06T19:32:14.578Z,16.10
2018-10-06T19:34:44.836Z,16.00
2018-10-06T19:37:13.415Z,16.00
2018-10-06T19:39:41.637Z,15.90
2018-10-06T19:42:09.773Z,15.90
2018-10-06T19:44:38.472Z,15.80
2018-10-06T19:47:06.874Z,15.80
2018-10-06T19:50:05.588Z,15.70
2018-10-06T19:52:34.398Z,15.70
2018-10-06T19:55:02.575Z,15.60
2018-10-06T19:57:31.455Z,15.60
2018-10-06T19:59:59.618Z,15.60
2018-10-06T20:02:28.872Z,15.50
2018-10-06T20:04:58.477Z,15.40
2018-10-06T20:07:27.861Z,15.40
2018-10-06T20:09:56.446Z,15.40
2018-10-06T20:12:24.759Z,15.30
2018-10-06T20:14:52.899Z,15.30
2018-10-06T20:17:21.809Z,15.20
2018-10-06T20:19:49.968Z,15.20
2018-10-06T20:22:18.913Z,15.10
2018-10-06T20:24:47.276Z,15.10
2018-10-06T20:27:15.489Z,15.00
2018-10-06T20:29:44.190Z,15.00
2018-10-06T20:32:12.992Z,14.90
2018-10-06T20:34:41.186Z,14.90
2018-10-06T20:37:09.373Z,14.90
2018-10-06T20:39:37.528Z,14.80
2018-10-06T20:42:05.825Z,14.80
2018-10-06T20:44:33.977Z,14.80
2018-10-06T20:47:02.388Z,14.70
2018-10-06T20:49:30.554Z,14.70
2018-10-06T20:51:58.756Z,14.70
2018-10-06T20:54:26.905Z,14.70
2018-10-06T20:56:55.095Z,14.60
2018-10-06T20:59:23.253Z,14.60
2018-10-06T21:01:51.663Z,14.60
2018-10-06T21:04:19.789Z,14.60
2018-10-06T21:06:47.972Z,14.50
2018-10-06T21:09:16.157Z,14.50
2018-10-06T21:11:44.325Z,14.40
2018-10-06T21:14:12.514Z,14.40
2018-10-06T21:16:40.729Z,14.40
2018-10-06T21:19:23.512Z,14.30
2018-10-06T21:21:51.668Z,14.30
2018-10-06T21:24:19.868Z,14.20
2018-10-06T21:26:48.100Z,14.20
2018-10-06T21:29:16.937Z,14.20
2018-10-06T21:31:45.279Z,14.10
2018-10-06T21:34:13.533Z,14.10
2018-10-06T21:36:41.729Z,14.10
2018-10-06T21:39:15.185Z,14.00
2018-10-06T21:41:44.241Z,14.00
2018-10-06T21:44:12.455Z,14.00
2018-10-06T21:46:40.620Z,13.90
2018-10-06T21:49:08.893Z,13.70
2018-10-06T21:51:37.854Z,14.00
2018-10-06T21:54:06.698Z,13.80
2018-10-06T21:56:35.725Z,13.80
2018-10-06T21:59:03.923Z,13.80
2018-10-06T22:01:32.090Z,13.70
2018-10-06T22:04:01.221Z,13.70
2018-10-06T22:06:29.388Z,13.70
2018-10-06T22:08:57.663Z,13.70
2018-10-06T22:11:26.295Z,13.60
2018-10-06T22:13:54.806Z,13.60
2018-10-06T22:16:25.165Z,13.60
2018-10-06T22:18:53.510Z,13.60
2018-10-06T22:21:21.885Z,13.60
2018-10-06T22:23:51.720Z,13.60
2018-10-06T22:26:19.981Z,13.60
2018-10-06T22:28:48.642Z,13.60
2018-10-06T22:31:16.864Z,13.60
2018-10-06T22:33:45.354Z,13.60
2018-10-06T22:36:14.279Z,13.60
2018-10-06T22:38:42.469Z,13.60
2018-10-06T22:41:10.749Z,13.60
2018-10-06T22:43:38.949Z,13.60
2018-10-06T22:46:07.365Z,13.70
2018-10-06T22:48:35.585Z,13.70
2018-10-06T22:51:03.756Z,13.70
2018-10-06T22:53:32.201Z,13.70
2018-10-06T22:56:00.363Z,13.70
2018-10-06T22:58:28.554Z,13.70
2018-10-06T23:00:58.110Z,13.70
2018-10-06T23:03:29.548Z,13.70
2018-10-06T23:05:57.737Z,13.80
2018-10-06T23:08:25.971Z,13.80
2018-10-06T23:10:54.209Z,13.80
2018-10-06T23:13:22.733Z,13.80
2018-10-06T23:15:51.050Z,13.80
2018-10-06T23:18:20.039Z,13.90
2018-10-06T23:20:48.728Z,14.00
2018-10-06T23:23:17.128Z,14.10
2018-10-06T23:25:45.377Z,14.10
2018-10-06T23:28:13.553Z,14.20
2018-10-06T23:30:42.206Z,14.20
2018-10-06T23:33:10.375Z,14.20
2018-10-06T23:35:38.662Z,14.20
2018-10-06T23:38:06.823Z,14.30
2018-10-06T23:40:35.785Z,14.30
2018-10-06T23:43:04.072Z,14.30
2018-10-06T23:45:32.878Z,14.20
2018-10-06T23:48:01.081Z,14.20
2018-10-06T23:50:29.344Z,14.20
2018-10-06T23:52:57.500Z,14.20
2018-10-06T23:55:25.844Z,14.20
2018-10-06T23:57:54.278Z,14.20
